Time;durP1;ratioP1;P1;durP2;ratioP2;P2;SDS_P1;SDS_P2;PMS_P1;PMS_P2;Temp;Humidity;BMP_temperature;BMP_pressure;BME280_temperature;BME280_humidity;BME280_pressure;Samples;Min_cycle;Max_cycle;Signal;HPM_P1;HPM_P2
2020/12/03 00:01:16;;;;;;;12.37;8.30;;;9.40;99.90;;;;;;5092217;28;20233;-87
2020/12/03 00:03:50;;;;;;;13.10;8.57;;;9.30;99.90;;;;;;5071408;28;20646;-84
2020/12/03 00:06:22;;;;;;;5.93;4.10;;;9.20;99.90;;;;;;5089002;28;20210;-85
2020/12/03 00:08:56;;;;;;;8.60;4.17;;;9.00;99.90;;;;;;5092149;28;20219;-85
2020/12/03 00:11:31;;;;;;;12.67;6.40;;;8.90;99.90;;;;;;5075388;28;20210;-85
2020/12/03 00:14:05;;;;;;;24.30;13.70;;;8.80;99.90;;;;;;5079835;28;20202;-85
2020/12/03 00:16:36;;;;;;;32.47;16.77;;;8.70;99.90;;;;;;5097163;28;20701;-85
2020/12/03 00:19:09;;;;;;;11.97;6.70;;;8.60;99.90;;;;;;5097524;28;20565;-84
2020/12/03 00:21:44;;;;;;;22.17;12.77;;;8.70;99.90;;;;;;5096014;28;20689;-84
2020/12/03 00:24:18;;;;;;;10.27;5.67;;;8.80;99.90;;;;;;5096919;28;20539;-84
2020/12/03 00:26:49;;;;;;;4.00;2.70;;;8.60;99.90;;;;;;5084015;28;20239;-84
2020/12/03 00:29:21;;;;;;;7.97;3.93;;;8.80;99.90;;;;;;5076264;28;20201;-85
2020/12/03 00:31:56;;;;;;;7.80;5.27;;;8.70;99.90;;;;;;5075701;28;20210;-84
2020/12/03 00:34:27;;;;;;;9.10;5.37;;;8.50;99.90;;;;;;5076271;28;20269;-84
2020/12/03 00:36:58;;;;;;;8.47;5.23;;;8.40;99.90;;;;;;5076378;28;20209;-84
2020/12/03 00:39:29;;;;;;;7.87;4.00;;;8.30;99.90;;;;;;5078341;28;20213;-85
2020/12/03 00:42:00;;;;;;;5.27;2.93;;;8.10;99.90;;;;;;5092710;28;20231;-84
2020/12/03 00:44:31;;;;;;;5.63;2.67;;;8.00;99.90;;;;;;5096450;28;20625;-84
2020/12/03 00:47:03;;;;;;;4.70;1.63;;;7.80;99.90;;;;;;5096929;28;20203;-83
2020/12/03 00:49:33;;;;;;;7.00;2.93;;;7.70;99.90;;;;;;5079801;28;20207;-84
2020/12/03 00:52:06;;;;;;;3.90;1.90;;;7.60;99.90;;;;;;5078431;28;20657;-84
2020/12/03 00:54:36;;;;;;;2.23;1.50;;;7.60;99.90;;;;;;5096738;28;20203;-85
2020/12/03 00:57:07;;;;;;;3.00;1.57;;;7.50;99.90;;;;;;5096974;28;20207;-85
2020/12/03 00:59:41;;;;;;;5.43;1.40;;;7.50;99.90;;;;;;5097219;28;20247;-85
2020/12/03 01:02:15;;;;;;;2.67;1.50;;;7.50;99.90;;;;;;5078099;28;20243;-84
2020/12/03 01:04:46;;;;;;;3.40;1.60;;;7.40;99.90;;;;;;5097370;28;20207;-84
2020/12/03 01:07:17;;;;;;;2.20;1.40;;;7.30;99.90;;;;;;5077743;28;20225;-85
2020/12/03 01:09:48;;;;;;;2.07;1.53;;;7.30;99.90;;;;;;5076491;28;20231;-84
2020/12/03 01:12:17;;;;;;;1.40;1.10;;;7.30;99.90;;;;;;5078247;28;20225;-85
2020/12/03 01:14:49;;;;;;;2.57;1.23;;;7.20;99.90;;;;;;5076642;28;20245;-85
2020/12/03 01:17:20;;;;;;;4.43;1.87;;;7.20;99.90;;;;;;5076064;28;20277;-85
2020/12/03 01:19:52;;;;;;;4.23;1.90;;;7.20;99.90;;;;;;5074765;28;20290;-84
2020/12/03 01:22:22;;;;;;;4.90;2.40;;;7.20;99.90;;;;;;5074463;28;20259;-84
2020/12/03 01:24:54;;;;;;;7.00;2.07;;;7.10;99.90;;;;;;5081871;28;20565;-84
2020/12/03 01:27:25;;;;;;;2.90;1.53;;;7.10;99.90;;;;;;5096670;28;20201;-84
2020/12/03 01:29:57;;;;;;;3.37;2.10;;;7.10;99.90;;;;;;5099005;28;20742;-85
2020/12/03 01:32:27;;;;;;;4.00;1.90;;;7.10;99.90;;;;;;5095768;28;20207;-84
2020/12/03 01:34:57;;;;;;;2.40;1.90;;;7.10;99.90;;;;;;5099167;28;20220;-85
2020/12/03 01:37:29;;;;;;;5.23;2.10;;;7.10;99.90;;;;;;5079415;28;20238;-85
2020/12/03 01:39:59;;;;;;;2.50;2.10;;;7.00;99.90;;;;;;5091482;28;20207;-84
2020/12/03 01:42:30;;;;;;;4.57;2.00;;;7.00;99.90;;;;;;5098539;28;20223;-84
2020/12/03 01:45:26;;;;;;;4.70;2.40;;;7.00;99.90;;;;;;5098819;28;20626;-85
2020/12/03 01:47:58;;;;;;;9.63;6.50;;;7.00;99.90;;;;;;5098098;28;20230;-85
2020/12/03 01:50:29;;;;;;;11.63;6.40;;;7.00;99.90;;;;;;5098390;28;20253;-85
2020/12/03 01:53:02;;;;;;;18.60;11.23;;;7.00;99.90;;;;;;5079697;28;20573;-85
2020/12/03 01:55:33;;;;;;;18.30;11.50;;;7.00;99.90;;;;;;5099134;28;20744;-84
2020/12/03 01:58:05;;;;;;;19.10;11.13;;;7.00;99.90;;;;;;5084980;28;20201;-84
2020/12/03 02:00:37;;;;;;;18.33;10.07;;;7.00;99.90;;;;;;5099999;28;20225;-84
2020/12/03 02:03:08;;;;;;;6.27;3.10;;;6.90;99.90;;;;;;5106658;28;20234;-85
2020/12/03 02:05:39;;;;;;;6.67;3.67;;;6.90;99.90;;;;;;5092496;28;20203;-83
2020/12/03 02:08:10;;;;;;;2.93;2.30;;;7.00;99.90;;;;;;5113645;28;20191;-85
2020/12/03 02:10:40;;;;;;;2.47;1.73;;;6.90;99.90;;;;;;5093149;28;20208;-86
2020/12/03 02:13:10;;;;;;;4.67;2.23;;;6.90;99.90;;;;;;5093255;28;20661;-82
2020/12/03 02:15:43;;;;;;;5.97;4.27;;;6.90;99.90;;;;;;5093606;28;20223;-84
2020/12/03 02:18:13;;;;;;;5.17;3.00;;;6.80;99.90;;;;;;5079974;28;20201;-84
2020/12/03 02:20:45;;;;;;;4.33;3.20;;;6.70;99.90;;;;;;5096866;28;20269;-84
2020/12/03 02:23:17;;;;;;;7.73;4.20;;;6.70;99.90;;;;;;5111988;28;20231;-84
2020/12/03 02:25:48;;;;;;;10.73;6.57;;;6.60;99.90;;;;;;5106932;28;20239;-84
2020/12/03 02:28:19;;;;;;;11.40;7.27;;;6.50;99.90;;;;;;5068611;28;20235;-82
2020/12/03 02:30:50;;;;;;;9.63;6.00;;;6.40;99.90;;;;;;5084952;28;20210;-84
2020/12/03 02:33:20;;;;;;;12.50;11.10;;;6.30;99.90;;;;;;5090353;28;20214;-84
2020/12/03 02:35:53;;;;;;;14.97;13.13;;;6.20;99.90;;;;;;5096690;28;20229;-84
2020/12/03 02:38:34;;;;;;;11.13;9.53;;;6.10;99.90;;;;;;5083142;28;20211;-90
2020/12/03 02:41:13;;;;;;;9.73;5.90;;;6.00;99.90;;;;;;5093219;28;20199;-87
2020/12/03 02:43:43;;;;;;;5.60;4.93;;;5.90;99.90;;;;;;5104846;28;20264;-88
2020/12/03 02:46:14;;;;;;;3.83;3.10;;;5.90;99.90;;;;;;5087966;28;20208;-86
2020/12/03 02:48:45;;;;;;;5.13;3.07;;;5.90;99.90;;;;;;5087880;28;20199;-87
2020/12/03 02:51:17;;;;;;;2.50;2.10;;;5.90;99.90;;;;;;5086270;28;20219;-88
2020/12/03 02:53:48;;;;;;;2.90;2.30;;;5.80;99.90;;;;;;5095263;28;20238;-88
2020/12/03 02:56:19;;;;;;;6.17;2.57;;;5.80;99.90;;;;;;5109013;28;20230;-88
2020/12/03 02:58:49;;;;;;;4.83;2.23;;;5.80;99.90;;;;;;5104363;28;20643;-88
2020/12/03 03:01:20;;;;;;;3.90;2.57;;;5.80;99.90;;;;;;5107003;28;20271;-88
2020/12/03 03:03:51;;;;;;;4.93;3.13;;;5.70;99.90;;;;;;5096164;28;20244;-88
2020/12/03 03:06:23;;;;;;;3.90;2.80;;;5.70;99.90;;;;;;5116296;28;20242;-88
2020/12/03 03:08:54;;;;;;;4.67;2.80;;;5.60;99.90;;;;;;5110646;28;20199;-88
2020/12/03 03:11:27;;;;;;;4.90;2.90;;;5.60;99.90;;;;;;5106627;28;20214;-89
2020/12/03 03:14:00;;;;;;;4.30;3.60;;;5.70;99.90;;;;;;5103876;28;20256;-88
2020/12/03 03:16:31;;;;;;;2.97;2.50;;;5.60;99.90;;;;;;5102109;28;20254;-88
2020/12/03 03:19:02;;;;;;;4.57;3.73;;;5.60;99.90;;;;;;5100066;28;20235;-89
2020/12/03 03:21:34;;;;;;;6.47;3.97;;;5.60;99.90;;;;;;5080793;28;20659;-91
2020/12/03 03:24:05;;;;;;;7.50;3.50;;;5.60;99.90;;;;;;5098793;28;20237;-88
2020/12/03 03:26:36;;;;;;;5.50;3.50;;;5.50;99.90;;;;;;5081656;28;20241;-87
2020/12/03 03:29:07;;;;;;;7.33;6.60;;;5.50;99.90;;;;;;5100046;28;20195;-89
2020/12/03 03:31:38;;;;;;;11.00;9.90;;;5.50;99.90;;;;;;5092909;28;20635;-91
2020/12/03 03:34:08;;;;;;;13.90;12.50;;;5.50;99.90;;;;;;5086393;28;20652;-89
2020/12/03 03:36:39;;;;;;;8.33;6.70;;;5.50;99.90;;;;;;5077553;28;20714;-87
2020/12/03 03:39:12;;;;;;;9.37;7.07;;;5.40;99.90;;;;;;5092788;28;20268;-87
2020/12/03 03:41:42;;;;;;;13.07;11.30;;;5.40;99.90;;;;;;5086251;28;20228;-88
2020/12/03 03:44:12;;;;;;;6.03;5.30;;;5.30;99.90;;;;;;5101313;28;20199;-85
2020/12/03 03:50:22;;;;;;;24.40;16.07;;;5.30;99.90;;;;;;5105434;28;20300;-92
2020/12/03 03:52:56;;;;;;;21.13;15.03;;;5.30;99.90;;;;;;5102956;28;20267;-86
2020/12/03 03:55:26;;;;;;;39.93;25.80;;;5.30;99.90;;;;;;5091125;28;20231;-86
2020/12/03 03:57:56;;;;;;;41.13;28.10;;;5.20;99.90;;;;;;5077887;28;20232;-86
2020/12/03 04:00:28;;;;;;;26.20;17.57;;;5.20;99.90;;;;;;5077472;28;20294;-87
2020/12/03 04:02:58;;;;;;;26.70;19.07;;;5.20;99.90;;;;;;5076483;28;20330;-86
2020/12/03 04:05:28;;;;;;;23.20;16.20;;;5.20;99.90;;;;;;5079839;28;20207;-86
2020/12/03 04:08:01;;;;;;;17.20;12.93;;;5.20;99.90;;;;;;5078330;28;20211;-85
2020/12/03 04:10:31;;;;;;;21.17;16.53;;;5.10;99.90;;;;;;5078379;28;20307;-86
2020/12/03 04:13:02;;;;;;;13.37;11.00;;;5.10;99.90;;;;;;5077561;28;20234;-86
2020/12/03 04:15:33;;;;;;;9.10;7.30;;;5.10;99.90;;;;;;5078324;28;20195;-86
2020/12/03 04:18:04;;;;;;;14.10;11.43;;;5.10;99.90;;;;;;5079966;28;20333;-86
2020/12/03 04:20:35;;;;;;;13.13;11.47;;;5.10;99.90;;;;;;5098824;28;20207;-87
2020/12/03 04:23:08;;;;;;;11.73;9.20;;;5.10;99.90;;;;;;5083230;28;20677;-86
2020/12/03 04:25:39;;;;;;;11.23;7.40;;;5.10;99.90;;;;;;5080112;28;20234;-87
2020/12/03 04:28:10;;;;;;;5.73;4.47;;;5.10;99.90;;;;;;5068833;28;20204;-85
2020/12/03 04:30:40;;;;;;;7.97;5.90;;;5.10;99.90;;;;;;5084283;28;20203;-86
2020/12/03 04:33:11;;;;;;;6.50;4.50;;;5.10;99.90;;;;;;5079464;28;20318;-86
2020/12/03 04:35:42;;;;;;;10.17;7.53;;;5.10;99.90;;;;;;5077235;28;20729;-86
2020/12/03 04:38:16;;;;;;;12.27;7.50;;;5.10;99.90;;;;;;5078719;28;20283;-87
2020/12/03 04:40:49;;;;;;;8.40;5.27;;;5.00;99.90;;;;;;5074498;28;20569;-86
2020/12/03 04:43:25;;;;;;;9.63;4.80;;;5.20;99.90;;;;;;5079532;28;20773;-86
2020/12/03 04:46:01;;;;;;;4.43;3.17;;;5.20;99.90;;;;;;5101507;28;20284;-86
2020/12/03 04:48:53;;;;;;;5.27;3.40;;;5.10;99.90;;;;;;5096417;28;20220;-87
2020/12/03 04:51:58;;;;;;;6.33;3.53;;;5.00;99.90;;;;;;5096896;28;20244;-86
2020/12/03 04:54:36;;;;;;;7.63;4.43;;;4.90;99.90;;;;;;5073473;28;20211;-86
2020/12/03 04:57:19;;;;;;;6.93;4.20;;;4.90;99.90;;;;;;5096488;28;20219;-86
2020/12/03 05:00:02;;;;;;;5.70;3.83;;;4.90;99.90;;;;;;5078816;28;20206;-86
2020/12/03 05:03:06;;;;;;;5.60;2.70;;;4.80;99.90;;;;;;5077515;28;20223;-86
2020/12/03 05:05:41;;;;;;;4.33;2.90;;;4.80;99.90;;;;;;5078633;28;20235;-87
2020/12/03 05:08:20;;;;;;;5.33;3.23;;;4.80;99.90;;;;;;5078544;28;20207;-86
2020/12/03 05:10:53;;;;;;;24.40;13.53;;;4.80;99.90;;;;;;5078727;28;20208;-85
2020/12/03 05:13:28;;;;;;;6.13;4.33;;;4.70;99.90;;;;;;5077743;28;20228;-85
2020/12/03 05:16:05;;;;;;;24.43;13.00;;;4.70;99.90;;;;;;5080667;28;20206;-93
2020/12/03 05:18:51;;;;;;;12.47;6.97;;;4.70;99.90;;;;;;5079451;28;20217;-91
2020/12/03 05:21:29;;;;;;;20.93;13.53;;;4.70;99.90;;;;;;5087713;28;20209;-91
2020/12/03 05:24:00;;;;;;;23.70;13.57;;;4.70;99.90;;;;;;5080186;28;20698;-91
2020/12/03 05:26:33;;;;;;;23.93;14.13;;;4.60;99.90;;;;;;5095726;28;20238;-91
2020/12/03 05:29:04;;;;;;;16.97;8.57;;;4.60;99.90;;;;;;5087694;28;20215;-91
2020/12/03 05:31:40;;;;;;;5.17;3.20;;;4.60;99.90;;;;;;5063522;28;20310;-91
2020/12/03 05:34:14;;;;;;;3.23;2.17;;;4.60;99.90;;;;;;5099781;28;20292;-91
2020/12/03 05:37:01;;;;;;;7.20;3.33;;;4.60;99.90;;;;;;5101059;28;20202;-91
2020/12/03 05:39:36;;;;;;;18.90;7.90;;;4.50;99.90;;;;;;5095493;28;20722;-91
2020/12/03 05:42:11;;;;;;;9.57;4.53;;;4.50;99.90;;;;;;5097870;28;20674;-91
2020/12/03 05:44:47;;;;;;;4.90;3.10;;;4.50;99.90;;;;;;5101480;28;20213;-91
2020/12/03 05:47:24;;;;;;;4.07;1.97;;;4.40;99.90;;;;;;5084903;28;20219;-91
2020/12/03 05:50:00;;;;;;;5.77;2.40;;;4.30;99.90;;;;;;5100809;28;20221;-92
2020/12/03 05:52:32;;;;;;;3.03;1.77;;;4.30;99.90;;;;;;5086064;28;20214;-92
2020/12/03 05:55:07;;;;;;;5.93;3.33;;;4.30;99.90;;;;;;5100357;28;20230;-92
2020/12/03 05:57:41;;;;;;;4.57;3.50;;;4.20;99.90;;;;;;5103495;28;20202;-90
2020/12/03 06:00:24;;;;;;;10.80;6.20;;;4.20;99.90;;;;;;5096128;28;20225;-89
2020/12/03 06:03:21;;;;;;;4.57;3.07;;;4.20;99.90;;;;;;5082847;28;20230;-89
2020/12/03 06:06:22;;;;;;;3.80;3.13;;;4.20;99.90;;;;;;5101527;28;20195;-87
2020/12/03 06:09:10;;;;;;;8.97;5.00;;;4.10;99.90;;;;;;5071428;28;20208;-89
2020/12/03 06:11:51;;;;;;;31.40;13.90;;;4.10;99.90;;;;;;5079900;28;20199;-89
2020/12/03 06:14:56;;;;;;;17.77;9.83;;;4.10;99.90;;;;;;5080701;28;20398;-89
2020/12/03 06:17:48;;;;;;;7.80;5.57;;;4.10;99.90;;;;;;5073810;28;20659;-89
2020/12/03 06:20:37;;;;;;;5.87;4.53;;;4.10;99.90;;;;;;5103814;28;20203;-91
2020/12/03 06:23:45;;;;;;;20.33;9.63;;;4.00;99.90;;;;;;5098522;28;20267;-90
2020/12/03 06:26:29;;;;;;;10.57;6.73;;;4.00;99.90;;;;;;5094567;28;20195;-89
2020/12/03 06:29:22;;;;;;;6.37;5.33;;;4.00;99.90;;;;;;5082904;28;20300;-91
2020/12/03 06:32:26;;;;;;;9.73;6.23;;;4.10;99.90;;;;;;5065176;28;20295;-89
2020/12/03 06:35:02;;;;;;;8.67;4.97;;;4.00;99.90;;;;;;5090852;28;20199;-90
2020/12/03 06:37:42;;;;;;;7.40;4.60;;;4.00;99.90;;;;;;5099511;28;20203;-90
2020/12/03 06:40:18;;;;;;;13.50;5.63;;;4.00;99.90;;;;;;5100793;28;20207;-90
2020/12/03 06:42:54;;;;;;;4.70;3.43;;;3.90;99.90;;;;;;5100774;28;20320;-89
2020/12/03 06:45:34;;;;;;;13.23;8.30;;;3.90;99.90;;;;;;5080885;28;20211;-89
2020/12/03 06:48:40;;;;;;;30.50;16.03;;;3.90;99.90;;;;;;5080180;28;20231;-89
2020/12/03 06:51:39;;;;;;;18.53;9.73;;;3.90;99.90;;;;;;5048090;28;20245;-88
2020/12/03 06:54:44;;;;;;;5.97;4.10;;;4.00;99.90;;;;;;5084167;28;20215;-90
2020/12/03 06:57:56;;;;;;;6.53;4.03;;;4.00;99.90;;;;;;5086698;28;20203;-90
2020/12/03 07:01:12;;;;;;;9.13;5.77;;;4.00;99.90;;;;;;5084238;28;20216;-89
2020/12/03 07:04:38;;;;;;;10.43;5.50;;;4.00;99.90;;;;;;5083695;28;20232;-90
2020/12/03 07:08:06;;;;;;;7.53;4.63;;;4.00;99.90;;;;;;5083333;28;20675;-90
2020/12/03 07:11:51;;;;;;;7.97;3.43;;;4.00;99.90;;;;;;5081492;28;20254;-90
2020/12/03 07:15:11;;;;;;;4.30;2.77;;;4.00;99.90;;;;;;5019479;28;20230;-90
2020/12/03 07:21:46;;;;;;;6.20;3.63;;;3.90;99.90;;;;;;5083414;28;20207;-90
2020/12/03 07:24:25;;;;;;;13.57;5.50;;;3.90;99.90;;;;;;5065114;28;20288;-90
2020/12/03 07:27:16;;;;;;;25.77;8.20;;;3.90;99.90;;;;;;5066373;28;20608;-91
2020/12/03 07:29:58;;;;;;;17.10;5.93;;;3.80;99.90;;;;;;5082736;28;20212;-90
2020/12/03 07:32:46;;;;;;;13.17;5.33;;;3.80;99.90;;;;;;5095739;28;20602;-90
2020/12/03 07:35:36;;;;;;;5.57;3.10;;;3.80;99.90;;;;;;5102992;28;20207;-90
2020/12/03 07:38:51;;;;;;;7.23;3.30;;;3.80;99.90;;;;;;5080221;28;20215;-90
2020/12/03 07:41:41;;;;;;;7.37;3.13;;;3.80;99.90;;;;;;5082158;28;20271;-90
2020/12/03 07:44:38;;;;;;;6.50;2.87;;;3.70;99.90;;;;;;5082170;28;20235;-90
2020/12/03 07:47:40;;;;;;;4.50;2.70;;;3.70;99.90;;;;;;5082573;28;20261;-88
2020/12/03 07:50:46;;;;;;;4.40;2.37;;;3.60;99.90;;;;;;5085147;28;20267;-90
2020/12/03 07:53:24;;;;;;;5.10;2.80;;;3.60;99.90;;;;;;5078202;28;20204;-89
2020/12/03 07:55:56;;;;;;;3.77;2.33;;;3.60;99.90;;;;;;5078923;28;20289;-90
2020/12/03 07:58:36;;;;;;;5.70;2.83;;;3.60;99.90;;;;;;5078254;28;20211;-89
2020/12/03 08:01:08;;;;;;;4.20;2.10;;;3.60;99.90;;;;;;5078825;28;20208;-89
2020/12/03 08:03:58;;;;;;;3.87;2.53;;;3.60;99.90;;;;;;5077498;28;20836;-90
2020/12/03 08:06:30;;;;;;;3.77;2.40;;;3.60;99.90;;;;;;5078040;28;20211;-92
2020/12/03 08:09:24;;;;;;;3.33;2.20;;;3.60;99.90;;;;;;5078003;28;20211;-89
2020/12/03 08:12:30;;;;;;;2.83;1.90;;;3.60;99.90;;;;;;5085285;28;20259;-90
2020/12/03 08:15:36;;;;;;;4.33;2.30;;;3.60;99.90;;;;;;5076882;28;20581;-89
2020/12/03 08:18:38;;;;;;;3.80;2.43;;;3.50;99.90;;;;;;5080679;28;20203;-90
2020/12/03 08:21:11;;;;;;;3.13;2.10;;;3.50;99.90;;;;;;5082255;28;20235;-90
2020/12/03 08:23:56;;;;;;;4.03;2.57;;;3.50;99.90;;;;;;5098824;28;20684;-90
2020/12/03 08:26:37;;;;;;;4.40;2.50;;;3.50;99.90;;;;;;5099960;28;20242;-91
2020/12/03 08:29:25;;;;;;;6.77;2.63;;;3.50;99.90;;;;;;5102318;28;20226;-91
2020/12/03 08:32:00;;;;;;;3.80;2.30;;;3.50;99.90;;;;;;5102803;28;20616;-90
2020/12/03 08:34:52;;;;;;;5.80;2.20;;;3.50;99.90;;;;;;5103914;28;20253;-92
2020/12/03 08:37:26;;;;;;;4.80;2.63;;;3.50;99.90;;;;;;5106391;28;20202;-91
2020/12/03 08:40:06;;;;;;;3.83;2.40;;;3.50;99.90;;;;;;5094850;28;20207;-91
2020/12/03 08:42:40;;;;;;;5.17;2.57;;;3.50;99.90;;;;;;5085018;28;20207;-90
2020/12/03 08:45:13;;;;;;;5.73;2.60;;;3.50;99.90;;;;;;5067381;28;20237;-89
2020/12/03 08:47:48;;;;;;;5.23;2.63;;;3.40;99.90;;;;;;5095747;28;20220;-88
2020/12/03 08:50:21;;;;;;;4.07;2.53;;;3.40;99.90;;;;;;5106212;28;20210;-89
2020/12/03 08:52:52;;;;;;;3.80;2.43;;;3.40;99.90;;;;;;5115101;28;20333;-89
2020/12/03 08:55:24;;;;;;;5.37;2.73;;;3.40;99.90;;;;;;5117187;28;20179;-90
2020/12/03 08:58:02;;;;;;;3.10;2.40;;;3.40;99.90;;;;;;5117140;28;20198;-89
2020/12/03 09:00:40;;;;;;;4.37;2.77;;;3.40;99.90;;;;;;5113738;28;20202;-90
2020/12/03 09:03:16;;;;;;;3.97;2.60;;;3.40;99.90;;;;;;5109486;28;20230;-90
2020/12/03 09:05:51;;;;;;;6.37;2.40;;;3.30;99.90;;;;;;5108803;28;20226;-90
2020/12/03 09:08:40;;;;;;;7.30;2.67;;;3.30;99.90;;;;;;5024977;28;20635;-90
2020/12/03 09:11:11;;;;;;;4.20;2.60;;;3.30;99.90;;;;;;5078270;28;20207;-90
2020/12/03 09:13:44;;;;;;;4.97;2.90;;;3.30;99.90;;;;;;5092813;28;20252;-89
2020/12/03 09:16:16;;;;;;;5.40;2.60;;;3.30;99.90;;;;;;5103376;28;20310;-90
2020/12/03 09:18:48;;;;;;;3.93;2.27;;;3.30;99.90;;;;;;5100083;28;20272;-89
2020/12/03 09:21:29;;;;;;;3.87;2.27;;;3.30;99.90;;;;;;5104476;28;20214;-89
2020/12/03 09:24:01;;;;;;;3.53;2.43;;;3.30;99.90;;;;;;5085532;28;20325;-89
2020/12/03 09:26:36;;;;;;;4.80;3.00;;;3.30;99.90;;;;;;5081886;28;20238;-90
2020/12/03 09:29:07;;;;;;;5.03;2.43;;;3.30;99.90;;;;;;5081151;28;20663;-90
2020/12/03 09:31:38;;;;;;;4.10;2.90;;;3.20;99.90;;;;;;5086758;28;20203;-90
2020/12/03 09:34:14;;;;;;;6.27;2.90;;;3.20;99.90;;;;;;5102263;28;20210;-91
2020/12/03 09:36:47;;;;;;;4.93;2.70;;;3.20;99.90;;;;;;5102202;28;20209;-91
2020/12/03 09:39:21;;;;;;;4.77;2.60;;;3.20;99.90;;;;;;5092794;28;20218;-90
2020/12/03 09:41:53;;;;;;;5.27;2.90;;;3.20;99.90;;;;;;5098485;28;20210;-91
2020/12/03 09:44:27;;;;;;;4.50;2.60;;;3.20;99.90;;;;;;5102205;28;20226;-91
2020/12/03 09:47:05;;;;;;;6.20;3.40;;;3.20;99.90;;;;;;5102757;28;20206;-91
2020/12/03 09:49:37;;;;;;;7.70;3.27;;;3.20;99.90;;;;;;5101670;28;20265;-89
2020/12/03 09:52:10;;;;;;;7.07;3.33;;;3.20;99.90;;;;;;5084141;28;20218;-89
2020/12/03 09:54:43;;;;;;;5.90;3.30;;;3.10;99.90;;;;;;5082351;28;20215;-89
2020/12/03 09:57:16;;;;;;;5.37;3.27;;;3.10;99.90;;;;;;5082210;28;20274;-90
2020/12/03 09:59:50;;;;;;;6.40;3.80;;;3.10;99.90;;;;;;5092865;28;20203;-90
2020/12/03 10:03:02;;;;;;;6.43;3.40;;;3.10;99.90;;;;;;5081437;28;20570;-90
2020/12/03 10:05:49;;;;;;;6.50;3.80;;;3.10;99.90;;;;;;5019538;28;20209;-89
2020/12/03 10:12:29;;;;;;;6.83;3.87;;;3.20;99.90;;;;;;5179593;27;20524;-90
2020/12/03 10:15:43;;;;;;;5.40;3.53;;;3.20;99.90;;;;;;5181213;27;20323;-90
2020/12/03 10:18:21;;;;;;;8.23;3.60;;;3.20;99.90;;;;;;5160224;27;20211;-90
2020/12/03 10:20:57;;;;;;;4.43;3.40;;;3.20;99.90;;;;;;5159667;27;20227;-90
2020/12/03 10:23:44;;;;;;;7.17;3.30;;;3.30;99.90;;;;;;5158452;27;20237;-90
2020/12/03 10:26:35;;;;;;;5.43;3.07;;;3.30;99.90;;;;;;5178414;27;20307;-90
2020/12/03 10:29:39;;;;;;;6.57;3.90;;;3.30;99.90;;;;;;5179139;27;20230;-90
2020/12/03 10:32:14;;;;;;;5.50;3.83;;;3.30;99.90;;;;;;5180323;27;20211;-91
2020/12/03 10:34:47;;;;;;;4.27;3.10;;;3.30;99.90;;;;;;5184404;27;20217;-92
2020/12/03 10:37:35;;;;;;;6.27;3.77;;;3.30;99.90;;;;;;5173939;27;20204;-90
2020/12/03 10:40:16;;;;;;;6.43;3.17;;;3.30;99.90;;;;;;5168626;27;20193;-90
2020/12/03 10:42:51;;;;;;;5.97;3.23;;;3.30;99.90;;;;;;5188781;27;20296;-93
2020/12/03 10:45:28;;;;;;;6.33;2.73;;;3.30;99.90;;;;;;5171068;27;20207;-90
2020/12/03 10:48:08;;;;;;;4.77;3.10;;;3.30;99.90;;;;;;5186874;27;20263;-90
2020/12/03 10:51:00;;;;;;;4.30;2.63;;;3.30;99.90;;;;;;5183350;27;20257;-89
2020/12/03 10:53:33;;;;;;;4.93;2.90;;;3.30;99.90;;;;;;5186314;27;20188;-91
2020/12/03 10:56:04;;;;;;;5.37;3.70;;;3.20;99.90;;;;;;5184736;27;20197;-90
2020/12/03 10:58:49;;;;;;;5.60;2.97;;;3.20;99.90;;;;;;5188651;27;20212;-90
2020/12/03 11:01:30;;;;;;;7.23;3.20;;;3.20;99.90;;;;;;5189185;27;20256;-90
2020/12/03 11:04:07;;;;;;;6.00;2.80;;;3.10;99.90;;;;;;5184696;27;20207;-89
2020/12/03 11:06:40;;;;;;;3.33;2.47;;;3.10;99.90;;;;;;5181858;27;20231;-90
2020/12/03 11:09:22;;;;;;;5.60;3.03;;;3.10;99.90;;;;;;5182479;27;20226;-89
2020/12/03 11:11:54;;;;;;;5.87;2.90;;;3.10;99.90;;;;;;5163607;27;20586;-90
2020/12/03 11:14:25;;;;;;;4.50;2.77;;;3.10;99.90;;;;;;5180363;27;20200;-89
2020/12/03 11:17:04;;;;;;;4.67;2.73;;;3.10;99.90;;;;;;5181373;27;20212;-90
2020/12/03 11:20:00;;;;;;;4.83;2.73;;;3.00;99.90;;;;;;5163778;27;20236;-89
2020/12/03 11:23:04;;;;;;;3.43;2.40;;;3.00;99.90;;;;;;5169761;27;20201;-91
2020/12/03 11:25:38;;;;;;;6.10;2.63;;;3.00;99.90;;;;;;5164222;27;20232;-90
2020/12/03 11:28:28;;;;;;;5.17;3.13;;;3.00;99.90;;;;;;5168437;27;20308;-89
2020/12/03 11:31:03;;;;;;;4.90;2.47;;;3.10;99.90;;;;;;5168196;27;20248;-91
2020/12/03 11:33:41;;;;;;;4.83;2.57;;;3.10;99.90;;;;;;5168810;27;20234;-90
2020/12/03 11:36:15;;;;;;;3.93;2.63;;;3.10;99.90;;;;;;5150492;27;20201;-90
2020/12/03 11:38:54;;;;;;;3.43;2.30;;;3.10;99.90;;;;;;5167619;27;20710;-90
2020/12/03 11:41:32;;;;;;;2.80;2.30;;;3.20;99.90;;;;;;5167243;27;20235;-90
2020/12/03 11:50:21;;;;;;;6.63;2.80;;;3.20;99.90;;;;;;5144065;27;20584;-91
2020/12/03 11:53:03;;;;;;;4.50;2.43;;;3.20;99.90;;;;;;5166705;27;20226;-91
2020/12/03 11:55:40;;;;;;;3.70;2.30;;;3.30;99.90;;;;;;5169807;27;20213;-91
2020/12/03 11:58:13;;;;;;;3.20;2.20;;;3.30;99.90;;;;;;5167391;27;20229;-90
2020/12/03 12:00:47;;;;;;;4.53;2.13;;;3.30;99.90;;;;;;5166109;27;20219;-90
2020/12/03 12:03:19;;;;;;;4.50;2.60;;;3.30;99.90;;;;;;5164402;27;20216;-91
2020/12/03 12:05:53;;;;;;;3.87;2.03;;;3.40;99.90;;;;;;5166871;27;20211;-91
2020/12/03 12:08:31;;;;;;;4.27;2.47;;;3.40;99.90;;;;;;5164999;27;20215;-90
2020/12/03 12:11:11;;;;;;;3.17;2.00;;;3.50;99.90;;;;;;5164696;27;20243;-90
2020/12/03 12:13:42;;;;;;;4.50;2.40;;;3.50;99.90;;;;;;5164998;27;20205;-90
2020/12/03 12:16:15;;;;;;;4.07;2.33;;;3.50;99.90;;;;;;5148032;27;20668;-90
2020/12/03 12:18:51;;;;;;;3.70;2.60;;;3.40;99.90;;;;;;5166152;27;20220;-91
2020/12/03 12:21:30;;;;;;;3.93;2.17;;;3.40;99.90;;;;;;5165703;27;20205;-90
2020/12/03 12:24:01;;;;;;;3.23;2.40;;;3.40;99.90;;;;;;5166177;27;20204;-91
2020/12/03 12:26:35;;;;;;;6.97;2.50;;;3.40;99.90;;;;;;5166149;27;20236;-91
2020/12/03 12:29:12;;;;;;;4.47;2.80;;;3.40;99.90;;;;;;5167091;27;20236;-90
2020/12/03 12:31:43;;;;;;;4.47;2.50;;;3.40;99.90;;;;;;5158495;27;20217;-90
2020/12/03 12:34:15;;;;;;;4.10;2.40;;;3.40;99.90;;;;;;5142672;27;20649;-91
2020/12/03 12:36:47;;;;;;;3.23;2.10;;;3.40;99.90;;;;;;5143854;27;20220;-90
2020/12/03 12:39:19;;;;;;;5.10;2.83;;;3.40;99.90;;;;;;5164256;27;20237;-91
2020/12/03 12:42:03;;;;;;;5.47;2.63;;;3.40;99.90;;;;;;5163262;27;20653;-89
2020/12/03 12:44:40;;;;;;;5.87;2.60;;;3.40;99.90;;;;;;5165203;27;20204;-90
2020/12/03 12:47:11;;;;;;;4.57;2.57;;;3.30;99.90;;;;;;5164506;27;20558;-90
2020/12/03 12:49:42;;;;;;;5.43;2.40;;;3.30;99.90;;;;;;5164631;27;20279;-91
2020/12/03 12:52:15;;;;;;;4.37;2.13;;;3.20;99.90;;;;;;5163674;27;20201;-91
2020/12/03 12:54:47;;;;;;;4.23;2.60;;;3.20;99.90;;;;;;5161832;27;20197;-90
2020/12/03 12:57:21;;;;;;;3.77;2.40;;;3.20;99.90;;;;;;5144597;27;20210;-93
2020/12/03 12:59:53;;;;;;;4.57;2.40;;;3.20;99.90;;;;;;5145121;27;20602;-91
2020/12/03 13:02:29;;;;;;;2.43;1.97;;;3.10;99.90;;;;;;5142037;27;20212;-91
2020/12/03 13:04:59;;;;;;;4.07;2.27;;;3.10;99.90;;;;;;5143386;27;20205;-91
2020/12/03 13:07:34;;;;;;;4.10;2.20;;;3.10;99.90;;;;;;5150232;27;20236;-90
2020/12/03 13:10:05;;;;;;;3.63;1.90;;;3.10;99.90;;;;;;5164359;27;20208;-90
2020/12/03 13:15:24;;;;;;;5.43;2.57;;;3.20;99.90;;;;;;5162451;27;20212;-89
2020/12/03 13:17:55;;;;;;;4.33;2.50;;;3.20;99.90;;;;;;5162775;27;20204;-90
2020/12/03 13:20:27;;;;;;;5.20;3.00;;;3.30;99.90;;;;;;5163085;27;20256;-91
2020/12/03 13:23:00;;;;;;;4.23;2.60;;;3.30;99.90;;;;;;5161503;27;20201;-90
2020/12/03 13:25:36;;;;;;;5.43;2.77;;;3.30;99.90;;;;;;5162966;27;20243;-91
2020/12/03 13:28:15;;;;;;;5.33;2.97;;;3.30;99.90;;;;;;5163539;27;20212;-91
2020/12/03 13:30:47;;;;;;;5.07;2.50;;;3.20;99.90;;;;;;5165623;27;20291;-90
2020/12/03 13:33:20;;;;;;;6.27;3.13;;;3.20;99.90;;;;;;5162843;27;20276;-89
2020/12/03 13:35:51;;;;;;;6.53;3.20;;;3.20;99.90;;;;;;5163807;27;20200;-90
2020/12/03 13:38:24;;;;;;;6.07;3.20;;;3.20;99.90;;;;;;5164011;27;20264;-90
2020/12/03 13:40:55;;;;;;;3.37;2.10;;;3.20;99.90;;;;;;5152802;27;20844;-90
2020/12/03 13:43:28;;;;;;;4.30;2.73;;;3.10;99.90;;;;;;5163620;27;20209;-91
2020/12/03 13:45:59;;;;;;;3.87;2.30;;;3.20;99.90;;;;;;5162781;27;20249;-90
2020/12/03 13:48:30;;;;;;;2.70;2.03;;;3.20;99.90;;;;;;5164736;27;20243;-91
2020/12/03 13:51:01;;;;;;;6.50;2.63;;;3.10;99.90;;;;;;5165237;27;20260;-90
2020/12/03 13:53:37;;;;;;;5.20;2.70;;;3.20;99.90;;;;;;5163739;27;20204;-91
2020/12/03 13:56:10;;;;;;;2.47;2.07;;;3.10;99.90;;;;;;5170276;27;20201;-89
2020/12/03 13:58:41;;;;;;;3.70;2.30;;;3.10;99.90;;;;;;5173653;27;20213;-92
2020/12/03 14:01:13;;;;;;;4.00;2.40;;;3.00;99.90;;;;;;5167943;27;20189;-91
2020/12/03 14:03:47;;;;;;;5.83;3.03;;;2.90;99.90;;;;;;5143580;27;20211;-91
2020/12/03 14:06:23;;;;;;;2.73;2.20;;;3.00;99.90;;;;;;5152072;27;20212;-91
2020/12/03 14:09:00;;;;;;;4.37;2.63;;;2.90;99.90;;;;;;5167227;27;20208;-90
2020/12/03 14:11:35;;;;;;;3.33;2.27;;;2.90;99.90;;;;;;5165210;27;20232;-91